Time;durP1;ratioP1;P1;durP2;ratioP2;P2;SDS_P1;SDS_P2;PMS_P1;PMS_P2;Temp;Humidity;BMP_temperature;BMP_pressure;BME280_temperature;BME280_humidity;BME280_pressure;Samples;Min_cycle;Max_cycle;Signal;HPM_P1;HPM_P2
2021/08/03 00:02:09;;;;;;;3.47;2.70;;;15.30;99.90;;;15.17;90.53;98094.25;5064180;28;20639;-65
2021/08/03 00:04:41;;;;;;;4.60;2.40;;;15.30;99.90;;;15.12;91.15;98088.50;5056129;28;20640;-65
2021/08/03 00:07:14;;;;;;;3.90;2.70;;;15.20;99.90;;;15.11;92.25;98089.50;5062908;28;20675;-65
2021/08/03 00:09:43;;;;;;;6.50;2.80;;;15.20;99.90;;;15.12;92.55;98089.34;5067240;28;20641;-65
2021/08/03 00:12:15;;;;;;;6.53;2.60;;;15.20;99.90;;;15.11;91.56;98078.97;5062659;28;21172;-65
2021/08/03 00:14:47;;;;;;;4.60;2.73;;;15.20;99.90;;;15.10;92.40;98080.75;5070094;28;21248;-65
2021/08/03 00:17:21;;;;;;;2.80;2.40;;;15.20;99.90;;;15.07;91.22;98085.47;5062965;28;20662;-65
2021/08/03 00:19:50;;;;;;;3.10;2.80;;;15.10;99.90;;;15.05;91.49;98079.50;5058365;28;20701;-66
2021/08/03 00:22:23;;;;;;;4.97;2.90;;;15.10;99.90;;;15.05;92.20;98083.91;5062262;28;20618;-65
2021/08/03 00:24:52;;;;;;;5.07;3.03;;;15.20;99.90;;;15.05;91.54;98076.03;5064412;28;20642;-65
2021/08/03 00:27:21;;;;;;;3.40;3.07;;;15.10;99.90;;;15.05;92.66;98079.50;5067067;28;20691;-65
2021/08/03 00:29:51;;;;;;;3.43;2.80;;;15.10;99.90;;;15.03;92.75;98081.41;5065699;28;20615;-65
2021/08/03 00:32:19;;;;;;;3.80;3.30;;;15.10;99.90;;;15.00;91.30;98078.22;5061121;28;20699;-65
2021/08/03 00:34:48;;;;;;;3.17;2.87;;;15.10;99.90;;;14.95;92.32;98080.44;5067282;28;20697;-65
2021/08/03 00:37:17;;;;;;;6.07;3.07;;;15.00;99.90;;;14.93;91.27;98075.31;5057962;28;20676;-65
2021/08/03 00:39:48;;;;;;;3.60;2.93;;;15.00;99.90;;;14.90;93.02;98067.69;5061751;28;20666;-65
2021/08/03 00:42:19;;;;;;;4.10;2.90;;;15.00;99.90;;;14.91;91.74;98074.59;5065862;28;20646;-65
2021/08/03 00:44:52;;;;;;;3.50;2.77;;;15.00;99.90;;;14.92;92.36;98057.88;5068015;28;20636;-65
2021/08/03 00:47:26;;;;;;;3.33;2.70;;;15.00;99.90;;;14.93;92.94;98059.56;5066099;28;20640;-65
2021/08/03 00:50:01;;;;;;;3.00;2.70;;;15.00;99.90;;;14.93;93.54;98063.94;5042149;28;20744;-65
2021/08/03 00:52:33;;;;;;;5.30;3.03;;;15.00;99.90;;;14.95;93.10;98067.31;5070154;28;20639;-65
2021/08/03 00:55:04;;;;;;;2.90;2.60;;;15.00;99.90;;;14.95;92.70;98060.25;5067708;28;20625;-65
2021/08/03 00:57:34;;;;;;;4.20;3.20;;;15.00;99.90;;;14.94;92.53;98055.13;5066028;28;20622;-65
2021/08/03 01:00:07;;;;;;;3.80;3.03;;;15.00;99.90;;;14.92;92.93;98049.19;5063179;28;20665;-65
2021/08/03 01:02:36;;;;;;;3.33;3.03;;;15.00;99.90;;;14.90;92.75;98049.31;5045186;28;20662;-65
2021/08/03 01:05:07;;;;;;;3.80;2.90;;;15.00;99.90;;;14.92;92.01;98052.63;5045204;28;20644;-65
2021/08/03 01:07:43;;;;;;;7.33;3.80;;;15.00;99.90;;;14.93;93.56;98059.56;5059799;28;20634;-65
2021/08/03 01:10:29;;;;;;;3.83;3.00;;;15.00;99.90;;;14.93;92.31;98059.56;5063230;28;20655;-65
2021/08/03 01:13:11;;;;;;;3.23;2.93;;;15.00;99.90;;;14.93;92.65;98059.56;5057598;28;20696;-65
2021/08/03 01:15:49;;;;;;;3.30;3.00;;;15.00;99.90;;;14.93;93.56;98056.94;5077495;28;20729;-65
2021/08/03 01:18:31;;;;;;;3.27;2.97;;;15.00;99.90;;;14.92;92.23;98064.94;5062563;28;20620;-65
2021/08/03 01:21:50;;;;;;;4.77;3.13;;;15.00;99.90;;;14.91;93.92;98056.19;5059246;28;20657;-65
2021/08/03 01:24:33;;;;;;;3.77;3.10;;;15.00;99.90;;;14.92;93.34;98059.69;5060263;28;20645;-65
2021/08/03 01:28:20;;;;;;;4.00;3.63;;;15.00;99.90;;;14.91;93.27;98058.84;5067385;28;20678;-65
2021/08/03 01:30:55;;;;;;;6.60;3.77;;;15.00;99.90;;;14.89;92.54;98066.03;4988551;28;20628;-65
2021/08/03 01:33:30;;;;;;;5.10;3.53;;;15.00;99.90;;;14.90;92.45;98067.69;5051709;28;21050;-65
2021/08/03 01:36:05;;;;;;;3.93;3.30;;;15.00;99.90;;;14.89;93.84;98070.44;5064837;28;21111;-65
2021/08/03 01:38:39;;;;;;;4.67;3.80;;;15.00;99.90;;;14.88;93.26;98066.97;5066840;28;21220;-65
2021/08/03 01:41:14;;;;;;;3.73;3.17;;;15.00;99.90;;;14.90;93.14;98070.31;5066123;28;20661;-65
2021/08/03 01:43:45;;;;;;;10.60;3.27;;;15.00;99.90;;;14.91;93.05;98060.63;5070809;28;20632;-65
2021/08/03 01:46:18;;;;;;;8.20;4.10;;;15.00;99.90;;;14.92;93.20;98068.38;5061353;28;21033;-65
2021/08/03 01:48:50;;;;;;;3.57;2.90;;;15.00;99.90;;;14.90;92.72;98075.56;5069529;28;20633;-65
2021/08/03 01:51:22;;;;;;;4.23;3.40;;;15.00;99.90;;;14.88;93.95;98066.16;5080960;28;20623;-65
2021/08/03 01:53:51;;;;;;;6.93;3.63;;;15.00;99.90;;;14.88;93.76;98063.53;5066010;28;20651;-65
2021/08/03 01:56:22;;;;;;;8.53;3.80;;;15.00;99.90;;;14.89;93.63;98063.41;5066594;28;20627;-65
2021/08/03 01:58:52;;;;;;;4.13;3.10;;;15.00;99.90;;;14.89;93.58;98066.03;5072071;28;20626;-65
2021/08/03 02:01:32;;;;;;;5.97;3.70;;;15.00;99.90;;;14.90;93.96;98067.69;5069094;28;21093;-65
2021/08/03 02:04:05;;;;;;;3.73;3.43;;;15.00;99.90;;;14.92;93.29;98068.38;5060723;28;20700;-65
2021/08/03 02:06:37;;;;;;;4.50;3.17;;;15.00;99.90;;;14.93;94.53;98056.94;5070525;28;20714;-65
2021/08/03 02:09:10;;;;;;;4.63;3.40;;;15.00;99.90;;;14.94;93.01;98055.94;5064781;28;20637;-65
2021/08/03 02:11:39;;;;;;;5.37;3.27;;;15.00;99.90;;;14.95;94.35;98055.00;5062316;28;21278;-65
2021/08/03 02:14:09;;;;;;;5.00;3.53;;;15.00;99.90;;;14.97;93.61;98058.31;5065861;28;20626;-65
2021/08/03 02:16:54;;;;;;;3.57;2.93;;;15.00;99.90;;;14.96;94.50;98054.03;5065946;28;20652;-65
2021/08/03 02:19:30;;;;;;;3.23;2.90;;;15.10;99.90;;;14.97;93.93;98050.41;5066315;28;20641;-64
2021/08/03 02:22:09;;;;;;;3.50;3.20;;;15.00;99.90;;;14.98;93.18;98046.03;5067722;28;20672;-65
2021/08/03 02:24:47;;;;;;;3.43;3.03;;;15.10;99.90;;;14.98;94.56;98049.47;5066511;28;21267;-65
2021/08/03 02:27:21;;;;;;;4.23;3.67;;;15.10;99.90;;;14.96;94.22;98046.16;5078085;28;20666;-65
2021/08/03 02:29:51;;;;;;;7.17;3.27;;;15.00;99.90;;;14.93;93.57;98049.03;5064610;28;20999;-65
2021/08/03 02:32:25;;;;;;;6.73;3.70;;;15.00;99.90;;;14.88;93.49;98035.47;5069745;28;20655;-65
2021/08/03 02:34:58;;;;;;;4.63;3.60;;;15.00;99.90;;;14.89;92.83;98042.38;5063399;28;20679;-65
2021/08/03 02:37:34;;;;;;;4.23;3.57;;;15.00;99.90;;;14.87;93.36;98032.97;5061550;28;20720;-65
2021/08/03 02:40:08;;;;;;;3.73;3.13;;;14.90;99.90;;;14.85;93.49;98029.66;5062901;28;20668;-65
2021/08/03 02:42:52;;;;;;;3.07;2.80;;;14.90;99.90;;;14.84;93.15;98028.81;5050407;28;20633;-65
2021/08/03 02:45:22;;;;;;;4.30;3.07;;;14.90;99.90;;;14.82;93.11;98014.16;5060900;28;20625;-65
2021/08/03 02:47:57;;;;;;;4.70;3.10;;;14.90;99.90;;;14.80;93.75;98016.91;5068531;28;21223;-65
2021/08/03 02:50:27;;;;;;;4.73;2.97;;;14.90;99.90;;;14.79;92.94;98015.28;5063285;28;20617;-65
2021/08/03 02:53:01;;;;;;;3.60;3.10;;;14.90;99.90;;;14.79;93.26;98022.28;5070499;28;20668;-65
2021/08/03 02:55:38;;;;;;;5.57;3.43;;;14.90;99.90;;;14.78;92.77;98018.84;5068787;28;20747;-66
2021/08/03 02:58:15;;;;;;;4.63;3.60;;;14.90;99.90;;;14.77;93.73;98011.94;5077633;28;20737;-64
2021/08/03 03:00:45;;;;;;;8.60;3.73;;;14.90;99.90;;;14.78;92.50;98016.22;5067473;28;20727;-65
2021/08/03 03:03:22;;;;;;;4.50;3.33;;;14.90;99.90;;;14.76;93.80;98012.91;5067813;28;20733;-65
2021/08/03 03:05:58;;;;;;;3.37;3.07;;;14.90;99.90;;;14.77;93.53;98021.59;5070054;28;21188;-65
2021/08/03 03:08:30;;;;;;;3.20;2.90;;;14.90;99.90;;;14.74;92.95;98021.88;5065173;28;20637;-65
2021/08/03 03:11:03;;;;;;;4.07;3.13;;;14.90;99.90;;;14.70;93.64;98023.09;5041701;28;20661;-66
2021/08/03 03:13:42;;;;;;;4.57;2.67;;;14.80;99.90;;;14.68;93.13;98017.97;5066919;28;21067;-64
2021/08/03 03:16:14;;;;;;;5.33;2.90;;;14.80;99.90;;;14.65;92.41;98015.59;5067282;28;20645;-65
2021/08/03 03:18:46;;;;;;;4.23;3.07;;;14.80;99.90;;;14.66;92.24;98017.28;5082388;28;20623;-65
2021/08/03 03:21:17;;;;;;;4.10;3.40;;;14.80;99.90;;;14.67;93.82;98021.56;5069075;28;21223;-65
2021/08/03 03:23:50;;;;;;;4.37;2.70;;;14.80;99.90;;;14.67;93.80;98016.31;5069674;28;20641;-65
2021/08/03 03:26:25;;;;;;;4.23;2.90;;;14.80;99.90;;;14.67;93.11;98018.09;5067931;28;20692;-65
2021/08/03 03:28:57;;;;;;;3.50;3.17;;;14.80;99.90;;;14.67;92.80;98013.69;5068521;28;20939;-64
2021/08/03 03:31:29;;;;;;;4.00;3.13;;;14.80;99.90;;;14.66;92.65;98008.59;5061520;28;20690;-64
2021/08/03 03:34:06;;;;;;;3.43;3.13;;;14.80;99.90;;;14.64;92.70;98006.09;5066108;28;20628;-64
2021/08/03 03:36:37;;;;;;;4.50;3.37;;;14.80;99.90;;;14.65;93.58;98006.91;5066176;28;20681;-64
2021/08/03 03:39:11;;;;;;;3.77;3.20;;;14.80;99.90;;;14.64;94.18;98011.34;5064298;28;20633;-65
2021/08/03 03:41:51;;;;;;;5.53;3.33;;;14.80;99.90;;;14.64;93.90;97997.34;5073948;28;20670;-64
2021/08/03 03:44:20;;;;;;;5.03;3.27;;;14.80;99.90;;;14.65;94.12;98001.66;5049041;28;20716;-65
2021/08/03 03:46:57;;;;;;;4.00;3.60;;;14.80;99.90;;;14.65;93.56;98015.59;5056437;28;21188;-65
2021/08/03 03:49:37;;;;;;;4.10;3.70;;;14.80;99.90;;;14.66;94.70;98004.16;5067131;28;20622;-65
2021/08/03 03:52:07;;;;;;;7.47;3.90;;;14.80;99.90;;;14.67;94.55;98000.56;5059934;28;20625;-65
2021/08/03 03:54:41;;;;;;;3.60;3.27;;;14.80;99.90;;;14.65;93.98;98001.66;5046836;28;20633;-65
2021/08/03 03:57:16;;;;;;;3.90;3.40;;;14.70;99.90;;;14.63;94.21;97998.34;5064915;28;20636;-65
2021/08/03 03:59:50;;;;;;;5.87;4.03;;;14.70;99.90;;;14.61;94.11;98001.09;5060971;28;20652;-65
2021/08/03 04:02:22;;;;;;;4.13;3.73;;;14.70;99.90;;;14.62;93.25;98002.75;5064946;28;20735;-65
2021/08/03 04:04:59;;;;;;;4.50;3.43;;;14.70;99.90;;;14.60;94.01;97999.44;5065220;28;20646;-64
2021/08/03 04:07:30;;;;;;;5.23;3.30;;;14.70;99.90;;;14.59;94.16;97993.47;5063204;28;20721;-64
2021/08/03 04:10:05;;;;;;;3.70;3.27;;;14.70;99.90;;;14.56;92.76;97999.81;5062400;28;21257;-65
2021/08/03 04:12:36;;;;;;;3.90;3.40;;;14.70;99.90;;;14.56;93.36;97993.75;5061079;28;20724;-65
2021/08/03 04:15:08;;;;;;;4.87;3.37;;;14.70;99.90;;;14.59;94.26;97998.72;5048526;28;20644;-64
2021/08/03 04:17:37;;;;;;;5.13;3.60;;;14.70;99.90;;;14.63;94.35;97999.16;5067785;28;20625;-64
2021/08/03 04:20:10;;;;;;;5.90;3.87;;;14.70;99.90;;;14.65;93.50;97997.22;5066146;28;20691;-65
2021/08/03 04:22:38;;;;;;;5.20;3.90;;;14.80;99.90;;;14.71;93.99;97988.81;5062793;28;20632;-64
2021/08/03 04:25:09;;;;;;;4.60;3.63;;;14.80;99.90;;;14.76;94.74;97994.53;5062588;28;21123;-65
2021/08/03 04:27:38;;;;;;;3.80;3.50;;;14.80;99.90;;;14.79;93.49;97989.00;5060116;28;20668;-65
2021/08/03 04:30:09;;;;;;;7.63;3.17;;;14.90;99.90;;;14.83;95.09;97997.44;5070299;28;21042;-65
2021/08/03 04:32:38;;;;;;;5.27;3.80;;;14.90;99.90;;;14.83;94.89;97990.38;5058894;28;20693;-64
2021/08/03 04:35:11;;;;;;;4.57;4.17;;;14.90;99.90;;;14.87;93.68;97999.69;5063440;28;20721;-64
2021/08/03 04:37:40;;;;;;;4.03;3.70;;;14.90;99.90;;;14.92;94.43;97997.47;5053008;28;20619;-65
2021/08/03 04:40:11;;;;;;;6.50;3.60;;;15.00;99.90;;;14.97;94.80;97994.44;5060638;28;20733;-65
2021/08/03 04:42:40;;;;;;;4.47;3.27;;;15.00;99.90;;;15.01;94.44;97988.78;5061361;28;20761;-65
2021/08/03 04:45:11;;;;;;;4.10;3.20;;;15.10;99.90;;;15.02;94.59;97989.59;5063467;28;20641;-65
2021/08/03 04:47:44;;;;;;;3.70;3.20;;;15.10;99.90;;;15.02;93.69;97984.34;5064308;28;20628;-64
2021/08/03 04:50:16;;;;;;;6.10;3.50;;;15.10;99.90;;;15.04;94.27;97988.53;5066948;28;20682;-64
2021/08/03 04:52:45;;;;;;;4.60;3.00;;;15.10;99.90;;;15.07;93.60;97994.34;5071051;28;20653;-64
2021/08/03 04:55:14;;;;;;;5.60;3.90;;;15.10;99.90;;;15.11;93.93;97994.91;5071402;28;20619;-65
2021/08/03 04:57:43;;;;;;;6.90;3.93;;;15.10;99.90;;;15.13;93.78;97983.28;5064724;28;21040;-64
2021/08/03 05:00:14;;;;;;;7.80;3.97;;;15.20;99.90;;;15.14;92.88;97982.31;5065628;28;20724;-64
2021/08/03 05:02:44;;;;;;;4.70;3.60;;;15.20;99.90;;;15.17;93.69;97986.53;5067357;28;20661;-65
2021/08/03 05:05:14;;;;;;;5.83;3.50;;;15.20;99.90;;;15.19;94.43;97992.47;5073047;28;20622;-65
2021/08/03 05:07:58;;;;;;;6.37;3.47;;;15.20;99.90;;;15.19;94.58;97977.53;5067859;28;20631;-65
2021/08/03 05:10:28;;;;;;;4.27;3.23;;;15.30;99.90;;;15.22;93.36;97986.94;5060986;28;21219;-64
2021/08/03 05:12:57;;;;;;;4.20;3.80;;;15.20;99.90;;;15.25;93.48;97986.66;5067393;28;20649;-64
2021/08/03 05:15:26;;;;;;;4.03;3.63;;;15.30;99.90;;;15.28;93.84;97984.59;5055560;28;20638;-64
2021/08/03 05:17:54;;;;;;;3.73;3.30;;;15.30;99.90;;;15.32;94.21;97987.78;5062512;28;21233;-64
2021/08/03 05:20:24;;;;;;;3.90;3.50;;;15.30;99.90;;;15.38;95.05;97982.81;5071969;28;20628;-64
2021/08/03 05:22:53;;;;;;;3.83;3.43;;;15.40;99.90;;;15.46;94.41;97990.03;5064140;28;20657;-64
2021/08/03 05:25:21;;;;;;;3.73;3.43;;;15.50;99.90;;;15.49;91.95;97984.50;5067209;28;20669;-65
2021/08/03 05:27:50;;;;;;;5.30;3.43;;;15.50;99.90;;;15.52;93.11;97989.47;5064602;28;21019;-65
2021/08/03 05:30:19;;;;;;;4.10;3.47;;;15.50;99.90;;;15.53;92.20;97983.22;5068347;28;20634;-65
2021/08/03 05:32:47;;;;;;;6.47;3.60;;;15.50;99.90;;;15.60;92.95;97980.72;5070286;28;20634;-65
2021/08/03 05:35:16;;;;;;;4.70;3.83;;;15.60;99.90;;;15.72;92.91;97984.06;5071204;28;20731;-64
2021/08/03 05:37:46;;;;;;;4.60;4.00;;;15.70;99.90;;;15.85;93.94;97980.19;5060398;28;20686;-64
2021/08/03 05:40:15;;;;;;;5.60;3.40;;;15.80;99.90;;;15.97;91.63;97984.34;5065560;28;20665;-65
2021/08/03 05:42:43;;;;;;;6.33;3.73;;;15.90;99.90;;;16.04;90.67;97980.16;5062190;28;21190;-65
2021/08/03 05:45:12;;;;;;;3.77;3.47;;;16.00;99.90;;;16.06;90.84;97986.13;5069730;28;20670;-65
2021/08/03 05:47:41;;;;;;;4.83;3.90;;;16.00;99.90;;;16.08;93.09;97985.00;5064920;28;20964;-65
2021/08/03 05:50:11;;;;;;;5.73;3.80;;;16.10;99.90;;;16.10;93.73;97979.59;5067806;28;20685;-65
2021/08/03 05:52:40;;;;;;;4.53;3.90;;;16.10;99.90;;;16.13;92.67;97979.31;5067355;28;20725;-65
2021/08/03 05:55:11;;;;;;;5.00;3.90;;;16.10;99.90;;;16.14;93.41;97979.16;5063648;28;20723;-64
2021/08/03 05:57:40;;;;;;;4.90;4.00;;;16.10;99.90;;;16.15;91.83;97978.22;5067462;28;21072;-64
2021/08/03 06:00:10;;;;;;;12.10;4.10;;;16.20;99.90;;;16.16;94.17;97981.66;5064006;28;20668;-66
2021/08/03 06:02:43;;;;;;;5.43;3.93;;;16.20;99.90;;;16.19;93.04;97978.75;5065981;28;20681;-65
2021/08/03 06:05:13;;;;;;;5.33;4.10;;;16.20;99.90;;;16.22;92.80;97979.34;5068305;28;20692;-65
2021/08/03 06:07:44;;;;;;;4.13;3.50;;;16.30;99.90;;;16.25;93.41;97978.22;5064040;28;20658;-66
2021/08/03 06:10:16;;;;;;;4.83;3.63;;;16.30;99.90;;;16.31;93.16;97980.28;5067071;28;20630;-65
2021/08/03 06:12:49;;;;;;;4.00;3.60;;;16.30;99.90;;;16.34;94.01;97975.56;5068632;28;20628;-65
2021/08/03 06:15:18;;;;;;;7.13;3.80;;;16.40;99.90;;;16.37;94.16;97980.53;5062898;28;20677;-65
2021/08/03 06:17:59;;;;;;;4.37;3.60;;;16.40;99.90;;;16.39;93.60;97983.88;5068799;28;20662;-65
2021/08/03 06:20:28;;;;;;;5.23;3.80;;;16.40;99.90;;;16.40;92.22;97979.41;5060131;28;20955;-65
2021/08/03 06:22:59;;;;;;;6.40;4.87;;;16.40;99.90;;;16.43;93.33;97979.13;5068775;28;20662;-65
2021/08/03 06:25:29;;;;;;;7.60;5.50;;;16.40;99.90;;;16.47;93.30;97985.78;5068299;28;20676;-65
2021/08/03 06:27:59;;;;;;;4.83;4.10;;;16.50;99.90;;;16.51;93.62;97982.72;5069320;28;20941;-65
2021/08/03 06:30:29;;;;;;;5.30;4.70;;;16.50;99.90;;;16.59;91.84;97975.75;5070666;28;20709;-64
2021/08/03 06:32:58;;;;;;;5.30;4.30;;;16.60;99.90;;;16.78;93.00;97980.94;5065481;28;20683;-65
2021/08/03 06:35:28;;;;;;;5.57;4.77;;;16.70;99.90;;;16.99;91.05;97984.19;5071091;28;20634;-65
2021/08/03 06:37:56;;;;;;;5.80;4.20;;;16.90;99.90;;;17.23;90.35;97985.31;5064048;28;20655;-65
2021/08/03 06:40:25;;;;;;;4.87;4.07;;;17.10;99.90;;;17.43;90.35;97983.41;5066044;28;20616;-65
2021/08/03 06:43:02;;;;;;;7.20;3.90;;;17.20;99.90;;;17.62;90.71;97992.81;5061760;28;20658;-65
2021/08/03 06:45:32;;;;;;;5.23;3.70;;;17.40;99.90;;;17.70;90.66;98000.00;5070232;28;21485;-65
2021/08/03 06:48:05;;;;;;;7.93;5.03;;;17.60;99.90;;;17.80;90.53;97991.03;5065939;28;20710;-65
2021/08/03 06:50:36;;;;;;;7.00;4.00;;;17.60;99.90;;;17.89;89.86;97991.91;5067693;28;20626;-64
2021/08/03 06:53:08;;;;;;;5.73;4.00;;;17.80;99.90;;;17.95;90.13;97994.75;5064184;28;21037;-64
2021/08/03 06:55:42;;;;;;;5.00;4.00;;;17.80;99.90;;;18.02;89.94;97988.72;5067355;28;20614;-64
2021/08/03 06:58:26;;;;;;;4.47;3.70;;;17.90;99.90;;;18.18;90.34;97993.34;5065357;28;20634;-71
2021/08/03 07:00:57;;;;;;;5.30;4.17;;;18.00;99.90;;;18.41;90.88;97988.22;5058383;28;20678;-69
2021/08/03 07:03:33;;;;;;;4.27;3.87;;;18.20;99.90;;;18.64;89.26;97992.00;5065759;28;21289;-66
2021/08/03 07:06:02;;;;;;;4.70;4.00;;;18.50;99.90;;;19.02;90.09;97997.69;5057982;28;20663;-63
2021/08/03 07:08:34;;;;;;;5.07;3.60;;;18.80;99.90;;;19.32;88.78;97996.28;5060945;28;21025;-63
2021/08/03 07:11:04;;;;;;;10.10;3.57;;;19.00;99.90;;;19.46;87.16;97984.09;5057356;28;20687;-63
2021/08/03 07:13:34;;;;;;;4.83;3.20;;;19.20;99.90;;;19.60;84.65;97988.75;5065867;28;21605;-63
2021/08/03 07:16:03;;;;;;;2.93;2.70;;;19.40;99.90;;;19.60;82.72;97994.03;5068619;28;21069;-62
2021/08/03 07:18:34;;;;;;;2.63;2.40;;;19.40;99.90;;;19.64;83.61;97984.78;5062862;28;20700;-64
2021/08/03 07:21:06;;;;;;;2.50;2.20;;;19.50;99.90;;;19.73;81.89;97996.25;5063003;28;20641;-64
2021/08/03 07:23:37;;;;;;;3.20;2.53;;;19.60;99.90;;;19.89;83.18;97997.09;5064072;28;21066;-64
2021/08/03 07:26:06;;;;;;;2.20;1.97;;;19.70;99.90;;;19.96;81.19;97990.16;5060890;28;21444;-64
2021/08/03 07:28:36;;;;;;;3.13;2.20;;;19.80;99.90;;;19.98;82.82;97988.16;5058628;28;21239;-64
2021/08/03 07:31:04;;;;;;;2.90;1.87;;;19.90;99.90;;;19.95;80.25;97983.19;5060853;28;20709;-64
2021/08/03 07:33:33;;;;;;;5.47;2.70;;;19.90;99.60;;;19.89;80.98;97987.34;5062013;28;20651;-64
2021/08/03 07:36:02;;;;;;;3.10;1.80;;;19.80;98.80;;;19.84;80.36;97984.34;5065619;28;20696;-64
2021/08/03 07:38:30;;;;;;;2.30;1.80;;;19.80;98.30;;;19.86;80.91;97990.31;5062687;28;21006;-64
2021/08/03 07:40:59;;;;;;;3.17;1.70;;;19.80;98.80;;;19.89;79.23;97983.84;5067460;28;20733;-64
2021/08/03 07:43:27;;;;;;;2.00;1.80;;;19.80;98.30;;;19.96;79.11;97985.69;5066276;28;20664;-64
2021/08/03 07:45:58;;;;;;;2.00;1.70;;;19.90;97.60;;;20.04;78.63;97988.34;5061249;28;20636;-64
2021/08/03 07:48:26;;;;;;;2.10;1.90;;;20.00;97.30;;;20.11;78.64;97989.31;5063516;28;20658;-64
2021/08/03 07:50:55;;;;;;;2.93;2.10;;;20.00;97.00;;;20.14;78.59;97988.19;5057604;28;20624;-64
2021/08/03 07:53:23;;;;;;;4.73;2.03;;;20.00;97.50;;;20.20;76.33;97992.81;5059156;28;20625;-64
2021/08/03 07:55:52;;;;;;;2.30;2.10;;;20.10;96.40;;;20.24;75.72;97988.84;5066969;28;20728;-64
2021/08/03 07:58:20;;;;;;;2.53;1.93;;;20.20;95.70;;;20.28;76.85;97982.19;5063306;28;20692;-64
2021/08/03 08:00:49;;;;;;;2.80;1.80;;;20.20;96.00;;;20.34;78.80;97991.16;5063878;28;20658;-64
2021/08/03 08:03:19;;;;;;;3.17;2.10;;;20.30;97.20;;;20.42;78.79;97991.13;5065607;28;20691;-64
2021/08/03 08:05:48;;;;;;;2.27;1.63;;;20.30;97.70;;;20.45;80.52;98005.88;5067016;28;20667;-64
2021/08/03 08:08:17;;;;;;;3.83;2.20;;;20.40;98.10;;;20.44;79.69;98001.56;5065693;28;20620;-64
2021/08/03 08:10:45;;;;;;;2.33;1.90;;;20.40;97.90;;;20.43;80.69;98005.19;5060220;28;20697;-64
2021/08/03 08:13:14;;;;;;;3.70;1.80;;;20.40;98.10;;;20.40;80.27;98006.38;5062918;28;21192;-64
2021/08/03 08:15:42;;;;;;;3.93;1.90;;;20.40;98.20;;;20.39;79.29;98002.06;5057416;28;20661;-64
2021/08/03 08:18:11;;;;;;;2.60;1.70;;;20.40;97.80;;;20.45;79.23;98003.22;5057180;28;21135;-64
2021/08/03 08:20:44;;;;;;;2.17;1.87;;;20.40;97.30;;;20.52;79.08;98004.19;5061390;28;21266;-65
2021/08/03 08:23:15;;;;;;;2.87;1.87;;;20.40;96.90;;;20.57;78.72;98005.34;5045062;28;20677;-64
2021/08/03 08:25:44;;;;;;;2.30;1.80;;;20.50;97.10;;;20.62;79.11;98003.03;5047365;28;21090;-65
2021/08/03 08:28:13;;;;;;;2.33;2.13;;;20.60;97.00;;;20.73;77.65;98008.00;5056288;28;20646;-64
2021/08/03 08:30:41;;;;;;;1.83;1.63;;;20.60;97.00;;;20.80;77.24;97989.59;5064634;28;20741;-64
2021/08/03 08:33:11;;;;;;;6.63;2.37;;;20.70;96.20;;;20.81;76.99;97994.75;5062536;28;21171;-64
2021/08/03 08:35:41;;;;;;;2.23;1.70;;;20.70;95.60;;;20.80;76.80;97986.94;5069082;28;21015;-64
2021/08/03 08:38:10;;;;;;;2.60;1.97;;;20.70;95.10;;;20.95;78.15;97988.72;5059155;28;21176;-64
2021/08/03 08:40:42;;;;;;;2.70;1.90;;;20.80;96.10;;;21.18;78.79;97997.56;5062241;28;20631;-64
2021/08/03 08:43:14;;;;;;;2.20;1.93;;;21.00;97.00;;;21.29;77.03;97985.59;5060478;28;20701;-64
2021/08/03 08:45:44;;;;;;;3.87;1.93;;;21.10;96.20;;;21.37;76.32;97988.19;5061044;28;20659;-64
2021/08/03 08:48:14;;;;;;;2.27;2.00;;;21.20;95.80;;;21.44;77.34;97983.84;5065930;28;21193;-64
2021/08/03 08:50:44;;;;;;;3.80;1.83;;;21.30;95.70;;;21.49;76.22;97988.66;5055597;28;20639;-64
2021/08/03 08:53:13;;;;;;;2.57;1.80;;;21.40;95.30;;;21.49;77.97;97992.13;5062380;28;21170;-64
2021/08/03 08:55:42;;;;;;;2.70;1.87;;;21.40;96.30;;;21.44;75.09;97983.84;5061247;28;20627;-64
2021/08/03 08:58:11;;;;;;;2.60;2.10;;;21.30;94.00;;;21.39;75.58;97985.34;5057839;28;20709;-64
2021/08/03 09:00:39;;;;;;;2.10;1.90;;;21.20;94.90;;;21.36;76.11;97986.56;5059441;28;20727;-64
2021/08/03 09:03:08;;;;;;;2.73;2.10;;;21.20;94.40;;;21.40;74.59;97987.84;5065230;28;20667;-64
2021/08/03 09:05:39;;;;;;;2.30;1.83;;;21.30;94.70;;;21.49;75.45;97986.84;5064479;28;20646;-65
2021/08/03 09:08:11;;;;;;;4.80;1.90;;;21.40;94.20;;;21.48;73.56;97979.03;5063442;28;20966;-65
2021/08/03 09:10:43;;;;;;;2.53;2.10;;;21.30;93.30;;;21.47;74.69;97988.84;5054051;28;21207;-64
2021/08/03 09:13:18;;;;;;;2.07;1.87;;;21.40;93.50;;;21.51;74.20;97981.34;5059318;28;20642;-64
2021/08/03 09:15:57;;;;;;;2.77;2.00;;;21.40;93.40;;;21.49;73.65;97975.41;5057105;28;20679;-64
2021/08/03 09:18:30;;;;;;;2.47;1.90;;;21.40;93.00;;;21.50;74.88;97988.50;5055044;28;20640;-64
2021/08/03 09:20:59;;;;;;;3.20;1.60;;;21.40;93.90;;;21.54;74.53;97984.47;5058588;28;20635;-64
2021/08/03 09:23:43;;;;;;;3.47;1.93;;;21.40;93.90;;;21.61;76.16;97998.72;5058049;28;20992;-65
2021/08/03 09:26:11;;;;;;;1.97;1.60;;;21.50;94.50;;;21.64;75.05;98003.69;5060122;28;20640;-65
2021/08/03 09:29:02;;;;;;;2.30;2.10;;;21.50;93.70;;;21.71;74.07;98011.75;5066267;28;21186;-65
2021/08/03 09:31:32;;;;;;;2.07;1.83;;;21.60;93.30;;;21.85;74.54;98006.53;5056438;28;21241;-65
2021/08/03 09:34:10;;;;;;;6.43;2.10;;;21.70;93.90;;;22.02;73.62;98010.72;5058372;28;20623;-64
2021/08/03 09:36:51;;;;;;;2.73;2.07;;;21.80;93.50;;;22.10;74.43;98015.97;5058985;28;21218;-70
2021/08/03 09:39:42;;;;;;;2.37;1.93;;;21.90;93.30;;;22.05;72.64;98015.69;5067493;28;20623;-66
2021/08/03 09:42:17;;;;;;;2.70;1.83;;;21.90;92.50;;;21.95;73.65;98025.72;5066399;28;20665;-66
2021/08/03 09:44:49;;;;;;;2.53;2.20;;;21.90;92.50;;;21.86;75.48;98011.66;5068101;28;21032;-66
2021/08/03 09:47:19;;;;;;;2.93;2.00;;;21.80;93.60;;;21.76;75.85;98012.09;5066231;28;20631;-66
2021/08/03 09:49:50;;;;;;;5.57;2.73;;;21.70;93.60;;;21.72;75.72;98016.09;5059415;28;20635;-67
2021/08/03 09:52:22;;;;;;;3.03;2.30;;;21.70;93.80;;;21.69;75.96;98011.13;5063768;28;20750;-66
2021/08/03 09:55:09;;;;;;;2.77;2.03;;;21.60;93.70;;;21.62;73.98;98015.47;5069603;28;20624;-66
2021/08/03 09:57:38;;;;;;;4.23;2.70;;;21.60;93.10;;;21.49;74.64;98021.34;5061030;28;21044;-67
2021/08/03 10:00:29;;;;;;;3.10;2.40;;;21.50;93.50;;;21.31;75.07;98017.25;5061050;28;20628;-66
2021/08/03 10:02:58;;;;;;;3.90;2.47;;;21.30;93.40;;;21.11;77.03;98008.06;5068467;28;20651;-66
2021/08/03 10:05:27;;;;;;;8.27;4.70;;;21.20;94.10;;;20.93;78.04;98007.44;5060126;28;20661;-66
2021/08/03 10:08:00;;;;;;;4.80;2.87;;;21.10;95.00;;;20.73;80.40;98033.69;5065840;28;20632;-66
2021/08/03 10:10:30;;;;;;;3.83;2.50;;;20.90;95.80;;;20.31;83.02;98064.00;5061378;28;21270;-66
2021/08/03 10:12:59;;;;;;;7.77;2.50;;;20.50;97.60;;;19.97;82.93;98073.91;5057486;28;20761;-66
2021/08/03 10:15:27;;;;;;;2.80;2.13;;;20.20;98.50;;;19.68;84.30;98072.63;5062377;28;20627;-66
2021/08/03 10:17:56;;;;;;;3.07;2.30;;;19.90;99.10;;;19.44;86.61;98067.28;5059841;28;20639;-66
2021/08/03 10:20:25;;;;;;;4.87;2.30;;;19.70;99.90;;;19.25;87.93;98050.84;5063987;28;20686;-64
2021/08/03 10:22:59;;;;;;;2.93;1.97;;;19.50;99.90;;;19.14;88.13;98048.44;5060344;28;20729;-63
2021/08/03 10:25:36;;;;;;;2.50;2.13;;;19.40;99.90;;;18.93;87.74;98043.53;5060843;28;20666;-66
2021/08/03 10:28:22;;;;;;;2.50;1.93;;;19.10;99.90;;;18.80;89.27;98055.50;5060044;28;21084;-66
2021/08/03 10:30:51;;;;;;;3.60;2.00;;;18.90;99.90;;;18.75;89.59;98052.53;5060686;28;21260;-67
2021/08/03 10:33:40;;;;;;;3.67;2.13;;;18.80;99.90;;;18.72;90.34;98062.56;5057777;28;20631;-65
2021/08/03 10:36:09;;;;;;;1.90;1.70;;;18.80;99.90;;;18.72;90.10;98055.47;5057646;28;21247;-62
2021/08/03 10:38:38;;;;;;;2.77;1.80;;;18.70;99.90;;;18.77;91.89;98061.13;5058119;28;21205;-64
2021/08/03 10:41:12;;;;;;;2.17;1.90;;;18.80;99.90;;;18.86;90.13;98060.19;5062136;28;21169;-64
2021/08/03 10:43:54;;;;;;;3.63;1.87;;;18.80;99.90;;;18.97;90.33;98052.81;5056491;28;20625;-64